Time;durP1;ratioP1;P1;durP2;ratioP2;P2;SDS_P1;SDS_P2;PMS_P1;PMS_P2;Temp;Humidity;BMP_temperature;BMP_pressure;BME280_temperature;BME280_humidity;BME280_pressure;Samples;Min_cycle;Max_cycle;Signal;HPM_P1;HPM_P2
2022/05/09 00:01:57;;;;;;;7.97;7.23;;;;;;;13.30;100.00;100971.50;5006088;28;20196;-49
2022/05/09 00:04:22;;;;;;;9.10;7.50;;;;;;;13.27;100.00;100970.66;5001715;28;20209;-50
2022/05/09 00:06:48;;;;;;;7.90;7.20;;;;;;;13.29;100.00;100967.19;5005445;28;20699;-50
2022/05/09 00:09:15;;;;;;;8.53;7.73;;;;;;;13.25;100.00;100962.00;5005031;28;20221;-49
2022/05/09 00:11:41;;;;;;;8.63;7.77;;;;;;;13.24;100.00;100962.00;5002755;28;20283;-49
2022/05/09 00:14:07;;;;;;;8.53;7.73;;;;;;;13.21;100.00;100962.91;5001952;28;20225;-50
2022/05/09 00:16:35;;;;;;;9.10;8.40;;;;;;;13.22;100.00;100968.97;5004166;28;20203;-49
2022/05/09 00:19:05;;;;;;;8.63;7.93;;;;;;;13.21;100.00;100970.69;5001152;28;20965;-50
2022/05/09 00:21:33;;;;;;;8.33;7.73;;;;;;;13.17;100.00;100973.34;5002117;28;20220;-49
2022/05/09 00:23:58;;;;;;;8.83;8.13;;;;;;;13.16;100.00;100982.00;5005725;28;20729;-49
2022/05/09 00:26:27;;;;;;;8.63;7.93;;;;;;;13.14;100.00;100973.38;5001293;28;20217;-49
2022/05/09 00:28:53;;;;;;;8.83;8.03;;;;;;;13.14;100.00;100969.03;5004636;28;20183;-49
2022/05/09 00:31:18;;;;;;;8.60;7.73;;;;;;;13.10;100.00;100975.97;5004180;28;20189;-49
2022/05/09 00:33:44;;;;;;;8.90;7.90;;;;;;;13.07;100.00;100980.34;5003979;28;20217;-49
2022/05/09 00:36:09;;;;;;;8.27;7.57;;;;;;;13.01;100.00;100973.47;5007450;28;20237;-49
2022/05/09 00:38:34;;;;;;;8.90;8.20;;;;;;;12.99;100.00;100984.75;5008220;28;20295;-49
2022/05/09 00:43:44;;;;;;;9.73;8.80;;;;;;;12.94;100.00;100972.66;5008038;28;20719;-49
2022/05/09 00:46:09;;;;;;;9.50;8.60;;;;;;;12.91;100.00;100962.28;5008378;28;20200;-49
2022/05/09 00:48:36;;;;;;;9.17;8.47;;;;;;;12.92;100.00;100971.81;5010172;28;20552;-50
2022/05/09 00:51:03;;;;;;;9.70;8.83;;;;;;;12.87;100.00;100968.38;5007776;28;20190;-49
2022/05/09 00:53:31;;;;;;;9.10;8.40;;;;;;;12.83;100.00;100971.88;5008717;28;20199;-49
2022/05/09 00:56:01;;;;;;;8.90;8.20;;;;;;;12.80;100.00;100970.16;5005667;28;20191;-49
2022/05/09 00:58:42;;;;;;;9.47;8.10;;;;;;;12.74;100.00;100969.34;5011480;28;20217;-49
2022/05/09 01:01:10;;;;;;;8.90;8.20;;;;;;;12.73;100.00;100967.59;5011301;28;20219;-50
2022/05/09 01:03:40;;;;;;;11.77;9.17;;;;;;;12.69;100.00;100963.34;5009694;28;20196;-50
2022/05/09 01:06:06;;;;;;;9.07;8.37;;;;;;;12.65;100.00;100962.47;5006960;28;20185;-49
2022/05/09 01:08:32;;;;;;;8.90;8.17;;;;;;;12.63;100.00;100969.41;5005012;28;20208;-50
2022/05/09 01:10:58;;;;;;;8.63;7.83;;;;;;;12.58;100.00;100976.38;5009435;28;20190;-49
2022/05/09 01:13:29;;;;;;;8.77;7.90;;;;;;;12.57;100.00;100965.09;5007874;28;20194;-50
2022/05/09 01:15:54;;;;;;;8.57;7.87;;;;;;;12.55;100.00;100968.59;5005828;28;20199;-49
2022/05/09 01:18:21;;;;;;;8.70;8.00;;;;;;;12.49;100.00;100967.75;5003239;28;20220;-50
2022/05/09 01:20:46;;;;;;;8.70;7.97;;;;;;;12.42;100.00;100966.09;5009205;28;20230;-50
2022/05/09 01:23:12;;;;;;;8.17;7.53;;;;;;;12.38;100.00;100960.94;5004450;28;20219;-49
2022/05/09 01:25:39;;;;;;;8.37;7.77;;;;;;;12.38;100.00;100959.19;5006799;28;20220;-49
2022/05/09 01:28:06;;;;;;;9.10;8.40;;;;;;;12.39;100.00;100958.31;5005021;28;20202;-49
2022/05/09 01:30:46;;;;;;;9.40;8.53;;;;;;;12.37;100.00;100970.44;5005820;28;20201;-49
2022/05/09 01:33:18;;;;;;;9.67;8.87;;;;;;;12.35;100.00;100964.38;5003729;28;21089;-50
2022/05/09 01:35:52;;;;;;;8.83;8.03;;;;;;;12.35;100.00;100964.38;5003504;28;20188;-49
2022/05/09 01:38:27;;;;;;;9.40;8.50;;;;;;;12.39;100.00;100968.69;5008673;28;20232;-50
2022/05/09 01:40:52;;;;;;;8.53;7.83;;;;;;;12.37;100.00;100965.22;5005502;28;20215;-49
2022/05/09 01:43:38;;;;;;;9.17;8.27;;;;;;;12.39;100.00;100973.88;5008246;28;20664;-50
2022/05/09 01:46:06;;;;;;;9.07;8.13;;;;;;;12.30;100.00;100966.16;5004432;28;20593;-49
2022/05/09 01:51:08;;;;;;;10.13;8.20;;;;;;;12.25;100.00;100960.13;6063118;23;21123;-48
2022/05/09 01:53:33;;;;;;;9.47;8.67;;;;;;;12.27;100.00;100960.97;5037715;28;20198;-49
2022/05/09 01:55:59;;;;;;;9.80;8.97;;;;;;;12.25;100.00;100965.31;5039629;28;20190;-51
2022/05/09 01:58:24;;;;;;;9.37;8.57;;;;;;;12.22;100.00;100968.78;5046639;28;20655;-50
2022/05/09 02:00:50;;;;;;;8.50;7.90;;;;;;;12.17;100.00;100967.94;5043436;28;20198;-50
2022/05/09 02:03:16;;;;;;;9.10;8.27;;;;;;;12.11;100.00;100974.03;5024893;28;20183;-50
2022/05/09 02:05:42;;;;;;;9.30;8.47;;;;;;;12.08;100.00;100970.59;5022167;28;20187;-50
2022/05/09 02:08:07;;;;;;;9.73;8.83;;;;;;;12.03;100.00;100971.47;5027049;28;20192;-50
2022/05/09 02:10:32;;;;;;;9.83;9.03;;;;;;;11.99;100.00;100971.47;5020565;28;20223;-50
2022/05/09 02:13:00;;;;;;;9.53;8.73;;;;;;;11.98;100.00;100972.31;5025700;28;20215;-50
2022/05/09 02:15:31;;;;;;;10.50;9.60;;;;;;;11.96;100.00;100980.09;5025455;28;20191;-50
2022/05/09 02:17:56;;;;;;;10.53;9.63;;;;;;;11.92;100.00;100975.78;5023627;28;20565;-51
2022/05/09 02:20:22;;;;;;;10.77;9.77;;;;;;;11.90;100.00;100978.38;5023773;28;20192;-51
2022/05/09 02:22:47;;;;;;;10.90;9.90;;;;;;;11.88;100.00;100980.09;5024774;28;20278;-50
2022/05/09 02:25:29;;;;;;;10.87;9.77;;;;;;;11.84;100.00;100975.81;5016284;28;20266;-50
2022/05/09 02:27:59;;;;;;;10.07;9.17;;;;;;;11.81;100.00;100978.41;5030551;28;20168;-48
2022/05/09 02:30:24;;;;;;;10.30;9.50;;;;;;;11.78;100.00;100980.16;5022016;28;20184;-50
2022/05/09 02:32:52;;;;;;;10.67;9.63;;;;;;;11.76;100.00;100977.56;5025927;28;20208;-50
2022/05/09 02:35:19;;;;;;;10.00;9.00;;;;;;;11.71;100.00;100977.56;5025533;28;20199;-50
2022/05/09 02:37:45;;;;;;;9.27;8.47;;;;;;;11.68;100.00;100987.94;5023473;28;20196;-49
2022/05/09 02:40:10;;;;;;;9.23;8.53;;;;;;;11.65;100.00;100992.28;5022111;28;20222;-51
2022/05/09 02:42:36;;;;;;;9.77;9.00;;;;;;;11.59;100.00;100981.06;5024018;28;20215;-51
2022/05/09 02:45:02;;;;;;;9.63;8.73;;;;;;;11.54;100.00;100992.31;5024847;28;20188;-48
2022/05/09 02:47:28;;;;;;;9.73;9.00;;;;;;;11.47;100.00;100988.84;5024315;28;20270;-49
2022/05/09 02:49:53;;;;;;;10.33;9.43;;;;;;;11.46;100.00;100994.91;5027073;28;20270;-48
2022/05/09 02:52:19;;;;;;;10.53;9.53;;;;;;;11.42;100.00;100988.88;5021105;28;20216;-49
2022/05/09 02:54:44;;;;;;;10.03;9.20;;;;;;;11.38;100.00;100996.66;5026554;28;20190;-49
2022/05/09 02:57:10;;;;;;;10.50;9.63;;;;;;;11.37;100.00;100994.94;5005289;28;20242;-51
2022/05/09 02:59:36;;;;;;;10.87;9.97;;;;;;;11.43;100.00;100992.31;5031955;28;20732;-51
2022/05/09 03:02:01;;;;;;;11.37;10.40;;;;;;;11.38;100.00;100991.47;5023610;28;20223;-51
2022/05/09 03:04:39;;;;;;;11.50;10.50;;;;;;;11.39;100.00;100991.47;5024697;28;20229;-49
2022/05/09 03:07:11;;;;;;;10.97;9.97;;;;;;;11.36;100.00;100998.38;5025190;28;20188;-48
2022/05/09 03:09:37;;;;;;;11.63;10.53;;;;;;;11.34;100.00;101000.09;5030374;28;20265;-51
2022/05/09 03:12:04;;;;;;;12.00;10.90;;;;;;;11.33;100.00;100993.19;5023572;28;20626;-50
2022/05/09 03:14:31;;;;;;;11.20;10.27;;;;;;;11.29;100.00;100994.94;5024181;28;20198;-50
2022/05/09 03:16:57;;;;;;;10.83;9.83;;;;;;;11.24;100.00;100997.53;5024195;28;20582;-51
2022/05/09 03:19:22;;;;;;;12.47;11.47;;;;;;;11.26;100.00;100995.81;5024229;28;20184;-49
2022/05/09 03:21:50;;;;;;;13.40;11.30;;;;;;;11.25;100.00;100998.38;5024110;28;20620;-49
2022/05/09 03:24:15;;;;;;;11.77;10.80;;;;;;;11.25;100.00;100988.00;5023899;28;20273;-49
2022/05/09 03:26:40;;;;;;;11.97;11.03;;;;;;;11.26;100.00;100990.63;5023463;28;20212;-49
2022/05/09 03:29:06;;;;;;;12.83;11.60;;;;;;;11.25;100.00;100985.44;5021963;28;20180;-51
2022/05/09 03:31:31;;;;;;;12.90;11.80;;;;;;;11.26;100.00;100989.75;5028288;28;20681;-50
2022/05/09 03:33:57;;;;;;;13.47;12.27;;;;;;;11.23;100.00;100990.63;5022731;28;20258;-49
2022/05/09 03:36:23;;;;;;;12.43;11.33;;;;;;;11.23;100.00;100992.31;5023569;28;20187;-49
2022/05/09 03:38:48;;;;;;;13.80;12.53;;;;;;;11.27;100.00;100989.72;5023285;28;20207;-49
2022/05/09 03:41:13;;;;;;;13.57;12.47;;;;;;;11.26;100.00;100994.94;5026287;28;20305;-49
2022/05/09 03:43:39;;;;;;;13.60;12.30;;;;;;;11.26;100.00;100984.56;5021220;28;20279;-51
2022/05/09 03:46:04;;;;;;;12.70;11.70;;;;;;;11.26;100.00;100988.03;5024446;28;20241;-49
2022/05/09 03:48:30;;;;;;;13.73;12.50;;;;;;;11.25;100.00;100988.91;5021315;28;20184;-50
2022/05/09 03:50:56;;;;;;;14.27;13.03;;;;;;;11.22;100.00;100983.72;5024287;28;20200;-50
2022/05/09 03:53:23;;;;;;;13.33;12.10;;;;;;;11.24;100.00;100981.09;5025710;28;20210;-50
2022/05/09 03:55:49;;;;;;;14.00;12.60;;;;;;;11.26;100.00;100987.16;5024048;28;20556;-50
2022/05/09 03:58:15;;;;;;;14.60;12.50;;;;;;;11.24;100.00;100991.47;5022764;28;20337;-50
2022/05/09 04:00:41;;;;;;;13.20;12.00;;;;;;;11.27;100.00;100986.28;5022097;28;20192;-50
2022/05/09 04:03:06;;;;;;;13.00;11.80;;;;;;;11.29;100.00;100993.19;5025869;28;20203;-50
2022/05/09 04:05:33;;;;;;;13.27;12.03;;;;;;;11.29;100.00;100985.41;5019713;28;20184;-50
2022/05/09 04:08:01;;;;;;;13.90;12.60;;;;;;;11.32;100.00;100988.88;5026452;28;20228;-50
2022/05/09 04:10:30;;;;;;;14.30;12.90;;;;;;;11.33;100.00;100990.59;5021294;28;20302;-50
2022/05/09 04:12:55;;;;;;;13.93;12.60;;;;;;;11.34;100.00;100993.22;5024597;28;20680;-50
2022/05/09 04:18:06;;;;;;;12.57;11.57;;;;;;;11.39;100.00;100999.22;5023798;28;20295;-50
2022/05/09 04:20:32;;;;;;;13.63;12.43;;;;;;;11.52;100.00;101001.81;5027515;28;20282;-50
2022/05/09 04:22:58;;;;;;;13.50;12.33;;;;;;;11.71;100.00;101005.25;5026063;28;20286;-50
2022/05/09 04:25:24;;;;;;;12.60;11.60;;;;;;;11.99;100.00;100993.09;5026136;28;20284;-51
2022/05/09 04:27:50;;;;;;;13.80;12.50;;;;;;;12.27;100.00;101002.50;5027619;28;20211;-51
2022/05/09 04:30:16;;;;;;;12.13;11.23;;;;;;;12.54;100.00;101001.50;5028540;28;20218;-50
2022/05/09 04:32:41;;;;;;;11.83;10.73;;;;;;;12.57;100.00;101001.47;5029780;28;20330;-50
2022/05/09 04:35:17;;;;;;;12.37;11.27;;;;;;;12.47;100.00;101002.41;5028657;28;20192;-51
2022/05/09 04:37:45;;;;;;;11.53;10.60;;;;;;;12.32;100.00;101001.59;5030955;28;20205;-50
2022/05/09 04:40:11;;;;;;;11.30;10.17;;;;;;;12.20;100.00;101006.84;5030856;28;20567;-50
2022/05/09 04:42:37;;;;;;;12.67;11.63;;;;;;;12.13;100.00;101010.31;5024058;28;20291;-51
2022/05/09 04:45:02;;;;;;;12.47;11.23;;;;;;;12.07;100.00;101005.19;5026973;28;20192;-51
2022/05/09 04:47:28;;;;;;;12.57;11.47;;;;;;;12.07;100.00;101007.78;5035583;28;20207;-50
2022/05/09 04:49:53;;;;;;;12.87;11.77;;;;;;;12.08;100.00;101007.75;5026114;28;20209;-50
2022/05/09 04:52:18;;;;;;;12.57;11.57;;;;;;;12.13;100.00;101006.00;5030488;28;20596;-51
2022/05/09 04:54:43;;;;;;;12.50;11.50;;;;;;;12.16;100.00;101005.13;5027037;28;20657;-49
2022/05/09 04:57:09;;;;;;;12.53;11.53;;;;;;;12.24;100.00;101015.47;5028950;28;20191;-49
2022/05/09 04:59:34;;;;;;;12.70;11.33;;;;;;;12.28;100.00;101014.59;5033871;28;20188;-50
2022/05/09 05:02:00;;;;;;;12.70;11.60;;;;;;;12.38;100.00;101011.09;5030575;28;20246;-49
2022/05/09 05:04:25;;;;;;;12.80;11.60;;;;;;;12.48;100.00;101007.56;5032190;28;20192;-48
2022/05/09 05:06:51;;;;;;;12.53;11.43;;;;;;;12.60;100.00;101016.19;5033180;28;20192;-48
2022/05/09 05:09:16;;;;;;;11.90;10.80;;;;;;;12.89;100.00;101012.53;5030423;28;20196;-50
2022/05/09 05:11:41;;;;;;;11.63;10.63;;;;;;;13.04;100.00;101009.81;5027137;28;20219;-49
2022/05/09 05:14:07;;;;;;;12.27;11.17;;;;;;;13.04;100.00;101015.03;5035918;28;20209;-49
2022/05/09 05:19:16;;;;;;;13.63;9.83;;;;;;;13.43;100.00;101019.94;5033542;28;20213;-48
2022/05/09 05:21:42;;;;;;;11.53;10.63;;;;;;;13.42;100.00;101013.00;5032503;28;20642;-49
2022/05/09 05:24:08;;;;;;;11.20;10.30;;;;;;;13.76;100.00;101020.50;5033115;28;20186;-49
2022/05/09 05:26:33;;;;;;;10.50;9.50;;;;;;;14.28;100.00;101031.16;5023645;28;20187;-51
2022/05/09 05:28:59;;;;;;;10.50;9.53;;;;;;;14.70;100.00;101017.63;5026869;28;20310;-51
2022/05/09 05:31:24;;;;;;;10.03;9.13;;;;;;;15.23;100.00;101028.97;5027731;28;20346;-50
2022/05/09 05:33:50;;;;;;;10.17;9.30;;;;;;;16.45;100.00;101032.81;5028851;28;20191;-50
2022/05/09 05:36:16;;;;;;;9.43;8.63;;;;;;;17.52;95.36;101027.69;5028858;28;20193;-50
2022/05/09 05:38:43;;;;;;;8.87;8.03;;;;;;;18.29;92.27;101027.38;5025638;28;20560;-50
2022/05/09 05:41:09;;;;;;;8.93;8.03;;;;;;;18.70;90.13;101030.50;5025337;28;20645;-50
2022/05/09 05:43:35;;;;;;;8.47;7.67;;;;;;;19.36;88.21;101037.16;5027318;28;20555;-50
2022/05/09 05:46:01;;;;;;;8.47;7.77;;;;;;;19.89;85.74;101030.16;5025442;28;20246;-50
2022/05/09 05:48:26;;;;;;;8.03;7.43;;;;;;;20.29;85.04;101027.78;5024279;28;20197;-50
2022/05/09 05:50:54;;;;;;;7.87;7.27;;;;;;;20.65;83.08;101032.56;5043786;28;20195;-50
2022/05/09 05:53:20;;;;;;;7.53;6.90;;;;;;;20.95;82.75;101029.63;5033728;28;20201;-50
2022/05/09 05:55:45;;;;;;;8.13;7.53;;;;;;;21.38;81.14;101032.28;5027007;28;20234;-49
2022/05/09 05:58:10;;;;;;;6.93;6.40;;;;;;;21.84;79.66;101040.84;5028981;28;20602;-48
2022/05/09 06:00:36;;;;;;;6.93;6.33;;;;;;;22.27;77.94;101037.19;5028524;28;20195;-50
2022/05/09 06:03:02;;;;;;;7.80;7.20;;;;;;;22.46;78.00;101039.84;5032021;28;20214;-50
2022/05/09 06:05:28;;;;;;;7.70;7.03;;;;;;;22.29;76.56;101043.25;5031720;28;20262;-49
2022/05/09 06:07:55;;;;;;;7.27;6.67;;;;;;;22.36;76.92;101039.38;5031014;28;20339;-51
2022/05/09 06:10:21;;;;;;;8.30;7.60;;;;;;;22.33;76.51;101044.78;5031189;28;20275;-50
2022/05/09 06:12:47;;;;;;;7.87;7.17;;;;;;;21.74;77.64;101043.03;5031344;28;20218;-50
2022/05/09 06:15:28;;;;;;;7.53;6.93;;;;;;;22.42;76.76;101039.16;5033706;28;20187;-50
2022/05/09 06:17:54;;;;;;;7.90;7.10;;;;;;;22.67;76.09;101036.22;5023226;28;20566;-50
2022/05/09 06:20:21;;;;;;;8.70;7.80;;;;;;;22.73;74.07;101040.31;5032070;28;20275;-48
2022/05/09 06:22:46;;;;;;;8.93;8.03;;;;;;;22.03;76.39;101047.91;5036207;28;20214;-51
2022/05/09 06:25:15;;;;;;;8.03;7.43;;;;;;;22.47;75.07;101038.94;5031885;28;20741;-50
2022/05/09 06:27:41;;;;;;;8.73;7.97;;;;;;;21.97;76.33;101043.78;5033617;28;20180;-49
2022/05/09 06:30:09;;;;;;;8.23;7.53;;;;;;;22.16;76.45;101037.69;5038248;28;20190;-49
2022/05/09 06:32:35;;;;;;;8.50;7.80;;;;;;;21.39;77.90;101044.53;5037856;28;20207;-49
2022/05/09 06:35:05;;;;;;;10.90;8.03;;;;;;;21.88;77.57;101042.41;5027967;28;20581;-50
2022/05/09 06:37:33;;;;;;;8.77;7.87;;;;;;;21.52;77.53;101048.34;5029990;28;20778;-50
2022/05/09 06:39:59;;;;;;;7.83;7.13;;;;;;;21.50;78.30;101050.19;5031145;28;20183;-50
2022/05/09 06:42:25;;;;;;;9.17;8.40;;;;;;;22.22;77.18;101051.44;5023335;28;20219;-50
2022/05/09 06:44:50;;;;;;;8.00;7.20;;;;;;;22.58;75.97;101046.34;5027311;28;20558;-50
2022/05/09 06:47:16;;;;;;;8.37;7.67;;;;;;;22.22;75.84;101048.78;5028181;28;20215;-50
2022/05/09 06:49:41;;;;;;;8.57;7.77;;;;;;;21.98;76.50;101045.47;5031347;28;20238;-50
2022/05/09 06:52:07;;;;;;;8.67;7.97;;;;;;;22.08;76.03;101043.28;5030046;28;20211;-50
2022/05/09 06:54:32;;;;;;;8.33;7.63;;;;;;;22.69;75.46;101046.66;5033764;28;20266;-50
2022/05/09 06:56:57;;;;;;;8.50;7.70;;;;;;;22.95;74.63;101047.19;5035708;28;20218;-50
2022/05/09 06:59:23;;;;;;;8.60;7.90;;;;;;;22.96;74.85;101049.78;5028753;28;20188;-50
2022/05/09 07:01:52;;;;;;;9.23;8.53;;;;;;;23.18;74.05;101048.69;5031284;28;20325;-50
2022/05/09 07:04:18;;;;;;;8.57;7.80;;;;;;;22.89;74.36;101042.22;5031292;28;20207;-50
2022/05/09 07:06:44;;;;;;;8.27;7.53;;;;;;;23.08;73.66;101044.81;5027237;28;20227;-50
2022/05/09 07:09:10;;;;;;;8.20;7.50;;;;;;;22.90;73.80;101047.41;5027087;28;20214;-49
2022/05/09 07:11:39;;;;;;;7.87;7.17;;;;;;;22.83;74.70;101038.94;5032391;28;20258;-50
2022/05/09 07:14:05;;;;;;;8.53;7.83;;;;;;;22.62;75.13;101045.25;5017894;28;20249;-50
2022/05/09 07:16:30;;;;;;;8.10;7.37;;;;;;;22.58;75.98;101051.63;5031532;28;20187;-50
2022/05/09 07:18:56;;;;;;;9.13;7.83;;;;;;;22.59;75.63;101046.25;5030381;28;20214;-50
2022/05/09 07:21:21;;;;;;;8.53;7.73;;;;;;;22.81;74.86;101040.81;5032859;28;20215;-49
2022/05/09 07:23:46;;;;;;;8.53;7.83;;;;;;;22.75;75.65;101045.53;5030098;28;20180;-48
2022/05/09 07:26:12;;;;;;;8.53;7.83;;;;;;;22.18;76.83;101041.09;5025480;28;20714;-50
2022/05/09 07:28:39;;;;;;;9.60;7.60;;;;;;;22.26;77.24;101049.50;5030607;28;20271;-50
2022/05/09 07:31:06;;;;;;;8.03;7.33;;;;;;;22.27;77.11;101037.19;5026574;28;20216;-50
2022/05/09 07:33:31;;;;;;;8.47;7.67;;;;;;;22.17;77.57;101047.28;5024466;28;20241;-50
2022/05/09 07:35:57;;;;;;;8.23;7.43;;;;;;;22.05;78.24;101052.22;5029192;28;20565;-50
2022/05/09 07:38:23;;;;;;;9.63;8.43;;;;;;;21.41;79.48;101046.16;5029861;28;20210;-50
2022/05/09 07:40:48;;;;;;;9.40;8.50;;;;;;;21.57;79.82;101043.72;5026964;28;20187;-48
2022/05/09 07:43:17;;;;;;;8.70;8.00;;;;;;;21.58;79.65;101047.22;5029477;28;20215;-50
2022/05/09 07:45:44;;;;;;;8.43;7.80;;;;;;;21.77;79.85;101048.16;5011670;28;20262;-49
2022/05/09 07:48:11;;;;;;;8.90;8.10;;;;;;;21.74;80.27;101052.69;5025679;28;20248;-50
2022/05/09 07:50:37;;;;;;;8.33;7.73;;;;;;;21.29;80.36;101052.78;5029884;28;20183;-50
2022/05/09 07:53:12;;;;;;;9.10;8.20;;;;;;;20.68;82.33;101062.22;5029003;28;20243;-50
2022/05/09 07:55:39;;;;;;;8.50;7.60;;;;;;;20.42;83.56;101052.69;5026365;28;20217;-48
2022/05/09 07:58:04;;;;;;;9.10;8.30;;;;;;;20.32;84.09;101056.59;5028394;28;20215;-50
2022/05/09 08:00:30;;;;;;;8.97;7.97;;;;;;;19.96;84.79;101060.53;5034165;28;20533;-48
2022/05/09 08:02:55;;;;;;;9.23;8.43;;;;;;;19.76;86.01;101069.06;5030766;28;20218;-50
2022/05/09 08:05:21;;;;;;;9.53;8.77;;;;;;;19.61;87.39;101075.69;5030645;28;20186;-50
2022/05/09 08:07:46;;;;;;;8.77;8.07;;;;;;;19.66;86.89;101065.91;5033909;28;20194;-50
2022/05/09 08:10:12;;;;;;;11.70;8.90;;;;;;;19.76;86.53;101064.66;5028596;28;20608;-50
2022/05/09 08:12:38;;;;;;;12.03;8.43;;;;;;;19.88;86.11;101076.56;5027021;28;20207;-48
2022/05/09 08:15:06;;;;;;;8.77;7.97;;;;;;;20.16;85.17;101072.94;5030262;28;20211;-50
2022/05/09 08:17:32;;;;;;;8.40;7.50;;;;;;;20.26;84.94;101068.19;5025360;28;20219;-50
2022/05/09 08:19:58;;;;;;;8.83;8.10;;;;;;;20.21;85.06;101068.38;5025911;28;20238;-50
2022/05/09 08:22:28;;;;;;;8.80;8.00;;;;;;;20.35;84.89;101064.38;5024971;28;20621;-50
2022/05/09 08:24:57;;;;;;;8.37;7.67;;;;;;;20.35;85.28;101057.31;5026374;28;20830;-50
2022/05/09 08:27:23;;;;;;;8.73;7.83;;;;;;;20.32;85.02;101069.72;5026557;28;20599;-50
2022/05/09 08:29:48;;;;;;;7.80;7.17;;;;;;;20.29;85.54;101061.94;5032747;28;20237;-50
2022/05/09 08:32:14;;;;;;;7.93;7.23;;;;;;;20.14;85.73;101066.88;5033237;28;20264;-50
2022/05/09 08:34:39;;;;;;;7.73;7.07;;;;;;;19.95;85.69;101066.69;5027793;28;20269;-50
2022/05/09 08:37:04;;;;;;;8.77;8.00;;;;;;;20.06;86.52;101058.41;5029895;28;20657;-50
2022/05/09 08:39:32;;;;;;;8.50;7.70;;;;;;;19.89;86.49;101072.19;5023607;28;20284;-50
2022/05/09 08:42:04;;;;;;;8.60;7.90;;;;;;;19.78;87.62;101062.00;5037465;28;20262;-50
2022/05/09 08:45:00;;;;;;;10.17;8.30;;;;;;;19.89;86.71;101054.63;5031426;28;20222;-50
2022/05/09 08:48:03;;;;;;;8.63;7.83;;;;;;;20.04;86.45;101068.97;5027409;28;20198;-50
2022/05/09 08:50:33;;;;;;;8.00;7.30;;;;;;;19.99;86.74;101059.53;5024745;28;20262;-50
2022/05/09 08:53:17;;;;;;;7.97;7.27;;;;;;;20.08;85.66;101064.47;5028953;28;20741;-50
2022/05/09 08:55:45;;;;;;;8.60;7.90;;;;;;;20.26;85.45;101057.69;5030804;28;20217;-50
2022/05/09 08:58:28;;;;;;;8.47;7.60;;;;;;;20.10;85.67;101053.00;5031343;28;20643;-50
2022/05/09 09:00:55;;;;;;;7.43;6.77;;;;;;;20.25;86.24;101048.06;5031994;28;20660;-50
2022/05/09 09:03:34;;;;;;;8.77;7.90;;;;;;;20.25;86.45;101054.22;5035852;28;20191;-50
2022/05/09 09:06:44;;;;;;;8.17;7.57;;;;;;;20.25;86.64;101050.72;5037655;28;20261;-49
2022/05/09 09:09:39;;;;;;;9.03;8.23;;;;;;;20.30;85.82;101053.16;5000719;28;20299;-50
2022/05/09 09:12:43;;;;;;;8.53;7.73;;;;;;;20.16;85.63;101053.69;5027272;28;20195;-50
2022/05/09 09:15:31;;;;;;;9.07;8.30;;;;;;;20.14;86.41;101066.88;5008735;28;20209;-50
2022/05/09 09:18:11;;;;;;;9.13;8.40;;;;;;;20.01;87.37;101062.97;5023369;28;20740;-50
2022/05/09 09:20:55;;;;;;;8.87;8.07;;;;;;;20.03;86.49;101064.66;5033860;28;20225;-49
2022/05/09 09:23:48;;;;;;;8.50;7.70;;;;;;;20.32;85.76;101060.09;5029719;28;20184;-49
2022/05/09 09:26:28;;;;;;;8.70;7.80;;;;;;;20.53;84.28;101053.16;5021770;28;20186;-49
2022/05/09 09:29:06;;;;;;;7.70;7.10;;;;;;;20.41;84.62;101057.09;5030437;28;20183;-50
2022/05/09 09:31:36;;;;;;;9.07;7.07;;;;;;;20.52;84.67;101054.06;5030050;28;20237;-49
2022/05/09 09:34:16;;;;;;;8.27;7.57;;;;;;;20.67;84.65;101046.50;5030818;28;20233;-50
2022/05/09 09:36:50;;;;;;;7.27;6.50;;;;;;;20.91;83.93;101049.97;5034974;28;20313;-49
2022/05/09 09:39:19;;;;;;;7.13;6.40;;;;;;;21.05;83.99;101052.03;5036230;28;20232;-49
2022/05/09 09:41:45;;;;;;;8.20;7.23;;;;;;;21.07;83.59;101050.19;5029900;28;20196;-50
2022/05/09 09:44:19;;;;;;;7.47;6.70;;;;;;;21.23;83.30;101044.28;5025338;28;20188;-50
2022/05/09 09:47:00;;;;;;;7.70;6.60;;;;;;;21.37;82.52;101031.41;5032269;28;20195;-50
2022/05/09 09:49:25;;;;;;;7.30;6.60;;;;;;;21.46;82.53;101046.84;5037211;28;20190;-49
2022/05/09 09:51:51;;;;;;;6.73;6.13;;;;;;;21.45;83.28;101042.47;5028288;28;20226;-50
2022/05/09 09:54:20;;;;;;;7.17;6.47;;;;;;;21.55;83.17;101044.72;5024730;28;20188;-49
2022/05/09 09:56:45;;;;;;;7.33;6.77;;;;;;;21.27;82.34;101032.72;5032328;28;20195;-49
2022/05/09 09:59:10;;;;;;;8.67;6.90;;;;;;;21.59;82.74;101033.97;5029511;28;20580;-50
2022/05/09 10:01:36;;;;;;;10.57;7.10;;;;;;;21.50;81.98;101038.78;5037986;28;20573;-50
2022/05/09 10:04:06;;;;;;;7.40;6.60;;;;;;;21.29;82.07;101039.63;5011460;28;20187;-50
2022/05/09 10:06:33;;;;;;;7.13;6.53;;;;;;;21.50;82.58;101036.13;5032579;28;20244;-50
2022/05/09 10:09:08;;;;;;;7.63;7.07;;;;;;;21.57;81.23;101030.53;5026325;28;20180;-50
2022/05/09 10:11:34;;;;;;;7.63;6.33;;;;;;;21.93;81.68;101029.06;5030010;28;20682;-50
2022/05/09 10:14:03;;;;;;;7.50;6.90;;;;;;;21.98;81.01;101021.78;5029549;28;20194;-50
2022/05/09 10:16:33;;;;;;;7.93;7.13;;;;;;;22.03;80.48;101017.16;5034134;28;20242;-50
2022/05/09 10:19:01;;;;;;;8.50;6.50;;;;;;;21.95;80.40;101021.91;5021122;28;20234;-50
2022/05/09 10:27:15;;;;;;;7.43;6.70;;;;;;;21.72;79.71;101008.00;5031790;28;20202;-50
2022/05/09 10:29:44;;;;;;;9.10;6.40;;;;;;;21.70;79.00;101009.00;5028621;28;20232;-50
2022/05/09 10:32:12;;;;;;;7.00;6.30;;;;;;;21.66;80.33;101008.25;5021814;28;20278;-50
2022/05/09 10:34:40;;;;;;;8.40;6.03;;;;;;;21.80;81.74;101009.41;5025608;28;20196;-49
2022/05/09 10:37:12;;;;;;;6.93;6.23;;;;;;;21.91;81.60;101009.81;5020170;28;20267;-49
2022/05/09 10:39:42;;;;;;;6.43;5.93;;;;;;;21.96;78.90;100994.63;5027542;28;20190;-50
2022/05/09 10:42:10;;;;;;;6.83;6.13;;;;;;;22.33;78.61;100997.34;5024248;28;20204;-50
2022/05/09 10:44:51;;;;;;;6.80;6.10;;;;;;;22.39;78.78;100995.25;5026295;28;20895;-49
2022/05/09 10:47:36;;;;;;;6.43;5.70;;;;;;;22.39;78.63;100995.25;5026353;28;20203;-49
2022/05/09 10:50:09;;;;;;;6.60;6.00;;;;;;;22.27;74.73;100997.66;5024716;28;20187;-49
2022/05/09 10:53:17;;;;;;;6.20;5.60;;;;;;;22.10;74.65;100988.72;5023132;28;20302;-50
2022/05/09 10:56:02;;;;;;;6.47;5.67;;;;;;;22.56;75.50;100990.16;5023545;28;20206;-50
2022/05/09 10:58:37;;;;;;;5.83;5.33;;;;;;;22.43;74.41;100976.69;5017451;28;20703;-49
2022/05/09 11:01:19;;;;;;;7.43;5.20;;;;;;;22.61;74.57;100974.97;5021921;28;20185;-50
2022/05/09 11:03:45;;;;;;;5.77;5.37;;;;;;;22.75;73.62;100975.16;5031268;28;20263;-49
2022/05/09 11:06:17;;;;;;;6.27;5.70;;;;;;;22.81;73.45;100980.09;5029143;28;20270;-50
2022/05/09 11:08:57;;;;;;;5.20;4.80;;;;;;;22.87;71.75;100972.81;5028415;28;20661;-50
2022/05/09 11:11:41;;;;;;;5.23;4.80;;;;;;;22.63;69.34;100962.53;5031628;28;20242;-50
2022/05/09 11:14:19;;;;;;;5.57;5.07;;;;;;;22.72;70.88;100979.69;5027699;28;20182;-49
2022/05/09 11:16:47;;;;;;;5.10;4.73;;;;;;;22.58;68.64;100967.19;5030727;28;20233;-50
2022/05/09 11:19:29;;;;;;;5.47;5.03;;;;;;;22.49;68.23;100958.78;5023578;28;20575;-49
2022/05/09 11:22:26;;;;;;;6.57;4.83;;;;;;;22.60;68.93;100962.72;5027007;28;20766;-49
2022/05/09 11:25:18;;;;;;;6.73;4.50;;;;;;;22.73;66.97;100966.44;5020990;28;20237;-50
2022/05/09 11:28:04;;;;;;;7.43;5.13;;;;;;;22.74;67.07;100980.47;5024553;28;20186;-50
2022/05/09 11:30:38;;;;;;;4.83;4.40;;;;;;;22.75;66.81;100956.69;5023440;28;20230;-50
2022/05/09 11:33:22;;;;;;;4.60;4.20;;;;;;;22.81;66.88;100977.47;5023567;28;20203;-49
2022/05/09 11:35:52;;;;;;;4.63;4.23;;;;;;;22.94;67.18;100950.47;5017229;28;20191;-50
2022/05/09 11:38:36;;;;;;;4.73;4.33;;;;;;;22.99;65.75;100953.72;5022941;28;20208;-50
2022/05/09 11:41:44;;;;;;;4.97;4.50;;;;;;;23.19;66.53;100954.50;5022939;28;20419;-50
2022/05/09 11:44:14;;;;;;;17.13;5.67;;;;;;;23.20;67.93;100943.88;5025303;28;20305;-49